Buhara, Uzbekistan
Current Conditions -  °F | °C
As of 11:30 AM on Friday 28 Nov 2014 (Local Time) from UTSB Reporting Station
Overcast Overcast  
Wind Chill: 26°   Ceiling: 2300
Heat Index: 32°   Visibility: 4mi
Dew Point: 30°   Wind: 7mph
Humidity: 93%   Direction: 330°NNW
Pressure: 30.36"   Gusts: NA
Location:  39.72°N, 64.62°E
Report Text: UTSB 280630Z 33006KT 6000 OVC023CB M00/M01 Q1028 R01/190065NOSIG
Loading
Personal Weather Stations






























Interactive Weather Map New forecast layout! Learn more

10-Day Weather Forecast

Advertisements
Track Severe Weather on mobile